Time;durP1;ratioP1;P1;durP2;ratioP2;P2;SDS_P1;SDS_P2;PMS_P1;PMS_P2;Temp;Humidity;BMP_temperature;BMP_pressure;BME280_temperature;BME280_humidity;BME280_pressure;Samples;Min_cycle;Max_cycle;Signal;HPM_P1;HPM_P2
2023/07/23 00:00:06;;;;;;;3.42;1.77;;;20.90;77.50;;;;;;4141456;28;20061;-50
2023/07/23 00:02:09;;;;;;;4.93;1.90;;;20.80;77.60;;;;;;4145945;28;20053;-53
2023/07/23 00:04:11;;;;;;;11.48;1.92;;;20.80;77.70;;;;;;4133887;28;20051;-53
2023/07/23 00:06:13;;;;;;;12.20;2.15;;;20.80;77.90;;;;;;4134568;28;20046;-53
2023/07/23 00:08:15;;;;;;;4.88;1.70;;;20.80;78.20;;;;;;4134454;28;20046;-52
2023/07/23 00:10:18;;;;;;;13.75;2.15;;;20.70;78.40;;;;;;4134339;28;20454;-53
2023/07/23 00:12:20;;;;;;;6.78;1.98;;;20.70;78.80;;;;;;4133975;28;20052;-53
2023/07/23 00:14:22;;;;;;;4.93;1.58;;;20.60;79.10;;;;;;4134417;28;20426;-51
2023/07/23 00:16:24;;;;;;;7.15;1.80;;;20.60;79.10;;;;;;4134465;28;20046;-53
2023/07/23 00:18:27;;;;;;;4.63;1.80;;;20.60;79.20;;;;;;4116903;28;20082;-54
2023/07/23 00:20:29;;;;;;;4.13;1.42;;;20.60;79.50;;;;;;4134103;28;20045;-53
2023/07/23 00:22:32;;;;;;;3.60;1.63;;;20.50;79.60;;;;;;4133544;28;20053;-53
2023/07/23 00:24:34;;;;;;;4.10;1.83;;;20.50;79.80;;;;;;4134114;28;20050;-52
2023/07/23 00:26:36;;;;;;;300.50;18.90;;;20.60;79.90;;;;;;4116799;28;20050;-50
2023/07/23 00:28:39;;;;;;;5.45;1.70;;;20.50;80.20;;;;;;4133956;28;20046;-51
2023/07/23 00:30:41;;;;;;;5.78;1.80;;;20.50;80.40;;;;;;4133940;28;20105;-51
2023/07/23 00:32:43;;;;;;;22.02;3.17;;;20.40;80.60;;;;;;4133258;28;20069;-53
2023/07/23 00:34:46;;;;;;;9.00;1.92;;;20.40;80.90;;;;;;4134023;28;20133;-51
2023/07/23 00:36:48;;;;;;;10.85;2.00;;;20.40;81.00;;;;;;4133218;28;20489;-50
2023/07/23 00:38:50;;;;;;;9.80;2.25;;;20.40;80.90;;;;;;4133869;28;20078;-53
2023/07/23 00:40:56;;;;;;;5.18;1.73;;;20.40;81.10;;;;;;4133852;28;20093;-53
2023/07/23 00:42:58;;;;;;;6.47;1.70;;;20.40;81.50;;;;;;4133320;28;20129;-50
2023/07/23 00:45:00;;;;;;;3.17;1.77;;;20.40;81.60;;;;;;4133724;28;20050;-50
2023/07/23 00:47:03;;;;;;;3.45;1.80;;;20.30;81.70;;;;;;4133358;28;20093;-50
2023/07/23 00:49:05;;;;;;;7.05;2.13;;;20.30;82.30;;;;;;4133636;28;20050;-50
2023/07/23 00:51:08;;;;;;;5.57;2.35;;;20.30;82.80;;;;;;4133710;28;20478;-52
2023/07/23 00:53:10;;;;;;;5.97;1.88;;;20.30;82.30;;;;;;4133102;28;20047;-51
2023/07/23 00:55:13;;;;;;;3.35;1.60;;;20.30;82.20;;;;;;4133578;28;20117;-49
2023/07/23 00:57:15;;;;;;;3.15;1.70;;;20.30;82.40;;;;;;4133509;28;20138;-49
2023/07/23 00:59:18;;;;;;;5.72;2.03;;;20.30;82.50;;;;;;4133509;28;20054;-52
2023/07/23 01:01:20;;;;;;;5.47;2.00;;;20.30;82.50;;;;;;4132256;28;20050;-52
2023/07/23 01:03:23;;;;;;;4.70;2.22;;;20.20;82.70;;;;;;4118572;28;20065;-52
2023/07/23 01:05:25;;;;;;;3.70;1.77;;;20.20;82.90;;;;;;4117376;28;20125;-53
2023/07/23 01:07:31;;;;;;;3.67;1.80;;;20.20;82.70;;;;;;4117421;28;20043;-49
2023/07/23 01:09:34;;;;;;;2.10;1.63;;;20.20;82.70;;;;;;4117180;28;20074;-51
2023/07/23 01:11:38;;;;;;;5.50;1.88;;;20.30;82.70;;;;;;4117085;28;20051;-49
2023/07/23 01:13:40;;;;;;;4.63;2.30;;;20.20;82.80;;;;;;4099282;29;20055;-49
2023/07/23 01:15:42;;;;;;;3.28;1.60;;;20.20;83.10;;;;;;4116937;28;20078;-49
2023/07/23 01:17:46;;;;;;;7.30;2.08;;;20.20;82.90;;;;;;4117030;28;20453;-49
2023/07/23 01:19:59;;;;;;;5.20;2.00;;;20.20;83.30;;;;;;4116998;28;20058;-50
2023/07/23 01:22:05;;;;;;;4.13;2.08;;;20.20;83.30;;;;;;4117036;28;20050;-51
2023/07/23 01:24:07;;;;;;;3.00;1.90;;;20.10;83.50;;;;;;4116603;28;20126;-51
2023/07/23 01:26:13;;;;;;;6.05;2.10;;;20.20;83.40;;;;;;4117334;28;20422;-51
2023/07/23 01:28:15;;;;;;;3.55;2.25;;;20.10;83.40;;;;;;4116918;28;20078;-51
2023/07/23 01:30:17;;;;;;;5.60;2.15;;;20.10;83.70;;;;;;4116498;28;20051;-50
2023/07/23 01:32:19;;;;;;;4.70;2.22;;;20.10;83.70;;;;;;4116253;28;20051;-49
2023/07/23 01:34:22;;;;;;;5.60;1.90;;;20.10;83.80;;;;;;4116670;28;20174;-50
2023/07/23 01:36:24;;;;;;;4.07;1.92;;;20.10;83.80;;;;;;4116838;28;20051;-52
2023/07/23 01:38:27;;;;;;;3.88;2.05;;;20.10;83.70;;;;;;4116974;28;20407;-53
2023/07/23 01:40:30;;;;;;;8.23;2.35;;;20.10;83.70;;;;;;4117012;28;20043;-51
2023/07/23 01:42:32;;;;;;;6.50;2.55;;;20.20;83.60;;;;;;4116180;28;20137;-50
2023/07/23 01:44:35;;;;;;;7.38;2.53;;;20.20;83.60;;;;;;4116241;28;20053;-51
2023/07/23 01:46:37;;;;;;;4.78;2.30;;;20.10;83.70;;;;;;4116902;28;20046;-53
2023/07/23 01:48:39;;;;;;;2.60;2.10;;;20.10;83.70;;;;;;4121095;28;20108;-52
2023/07/23 01:50:41;;;;;;;4.32;2.22;;;20.10;83.60;;;;;;4131459;28;20050;-53
2023/07/23 01:52:43;;;;;;;7.38;2.35;;;20.10;83.60;;;;;;4131963;28;20047;-53
2023/07/23 01:54:46;;;;;;;4.28;2.10;;;20.10;83.60;;;;;;4132626;28;20494;-53
2023/07/23 01:56:48;;;;;;;2.35;2.10;;;20.20;83.50;;;;;;4132736;28;20073;-53
2023/07/23 01:58:50;;;;;;;8.52;2.30;;;20.10;83.60;;;;;;4131951;28;20054;-51
2023/07/23 02:00:57;;;;;;;6.75;2.60;;;20.10;83.90;;;;;;4132614;28;20043;-50
2023/07/23 02:02:59;;;;;;;3.47;1.98;;;20.10;83.70;;;;;;4120924;28;20411;-50
2023/07/23 02:05:03;;;;;;;3.75;2.00;;;20.10;83.90;;;;;;4116330;28;20495;-52
2023/07/23 02:07:05;;;;;;;4.40;2.50;;;20.10;84.10;;;;;;4099342;29;20071;-52
2023/07/23 02:09:07;;;;;;;4.35;2.33;;;20.10;84.10;;;;;;4116533;28;20043;-52
2023/07/23 02:11:10;;;;;;;3.53;2.10;;;20.10;84.30;;;;;;4099363;29;20443;-52
2023/07/23 02:13:13;;;;;;;4.28;2.45;;;20.10;84.00;;;;;;4115524;28;20050;-53
2023/07/23 02:15:15;;;;;;;5.03;2.53;;;20.10;83.80;;;;;;4115990;28;20047;-52
2023/07/23 02:17:17;;;;;;;4.53;2.78;;;20.20;83.60;;;;;;4116187;28;20066;-52
2023/07/23 02:19:19;;;;;;;4.18;2.50;;;20.10;83.90;;;;;;4116391;28;20043;-52
2023/07/23 02:21:21;;;;;;;4.38;2.20;;;20.20;84.00;;;;;;4115972;28;20046;-50
2023/07/23 02:23:24;;;;;;;8.80;2.38;;;20.10;84.00;;;;;;4115699;28;20046;-52
2023/07/23 02:25:26;;;;;;;4.47;2.30;;;20.10;84.20;;;;;;4115973;28;20063;-56
2023/07/23 02:27:29;;;;;;;2.83;2.50;;;20.00;84.20;;;;;;4116293;28;20046;-53
2023/07/23 02:29:32;;;;;;;5.22;2.55;;;20.00;84.30;;;;;;4115915;28;20042;-54
2023/07/23 02:31:34;;;;;;;4.80;2.35;;;20.00;84.60;;;;;;4098851;29;20117;-53
2023/07/23 02:33:36;;;;;;;3.70;2.55;;;20.00;84.70;;;;;;4115582;28;20047;-50
2023/07/23 02:35:38;;;;;;;4.65;2.55;;;20.00;84.60;;;;;;4115982;28;20083;-50
2023/07/23 02:37:40;;;;;;;6.32;2.28;;;20.00;84.70;;;;;;4116150;28;20078;-50
2023/07/23 02:39:42;;;;;;;6.63;2.40;;;19.90;84.90;;;;;;4116047;28;20051;-51
2023/07/23 02:41:44;;;;;;;4.40;2.35;;;19.90;84.90;;;;;;4115697;28;20053;-51
2023/07/23 02:43:48;;;;;;;3.13;2.00;;;20.00;84.90;;;;;;4114809;28;20047;-49
2023/07/23 02:45:50;;;;;;;3.28;1.98;;;19.90;85.30;;;;;;4115722;28;20053;-49
2023/07/23 02:47:52;;;;;;;5.40;2.20;;;19.90;85.80;;;;;;4115937;28;20070;-52
2023/07/23 02:49:54;;;;;;;4.07;2.22;;;19.90;85.70;;;;;;4130383;28;20107;-52
2023/07/23 02:51:57;;;;;;;6.28;2.38;;;19.90;86.10;;;;;;4131819;28;20149;-52
2023/07/23 02:53:58;;;;;;;3.13;1.98;;;19.90;86.40;;;;;;4131050;28;20056;-52
2023/07/23 02:56:01;;;;;;;6.50;2.00;;;19.90;86.50;;;;;;4131694;28;20058;-52
2023/07/23 02:58:04;;;;;;;5.28;2.13;;;19.90;86.70;;;;;;4131390;28;20121;-52
2023/07/23 03:00:09;;;;;;;5.50;2.53;;;19.90;87.80;;;;;;4131560;28;20054;-53
2023/07/23 03:02:13;;;;;;;5.55;2.75;;;19.90;87.90;;;;;;4126908;28;20414;-52
2023/07/23 03:04:15;;;;;;;2.92;1.90;;;19.80;88.30;;;;;;4115037;28;20123;-50
2023/07/23 03:06:17;;;;;;;5.05;2.03;;;19.80;88.60;;;;;;4115902;28;20053;-52
2023/07/23 03:08:19;;;;;;;5.13;2.33;;;19.80;88.60;;;;;;4115552;28;20047;-50
2023/07/23 03:10:21;;;;;;;3.17;1.98;;;19.80;88.50;;;;;;4115727;28;20518;-51
2023/07/23 03:12:23;;;;;;;4.60;2.17;;;19.80;88.80;;;;;;4097932;28;20551;-50
2023/07/23 03:14:25;;;;;;;5.72;2.30;;;19.80;88.90;;;;;;4114947;28;20126;-51
2023/07/23 03:16:29;;;;;;;5.38;2.22;;;19.80;88.60;;;;;;4115607;28;20479;-52
2023/07/23 03:18:31;;;;;;;5.85;2.15;;;19.70;89.00;;;;;;4115367;28;20062;-52
2023/07/23 03:20:33;;;;;;;5.03;2.30;;;19.80;89.30;;;;;;4115456;28;20046;-49
2023/07/23 03:22:35;;;;;;;3.58;1.88;;;19.70;89.40;;;;;;4114843;28;20545;-53
2023/07/23 03:24:37;;;;;;;4.18;1.90;;;19.60;89.60;;;;;;4119758;28;20535;-53
2023/07/23 03:26:40;;;;;;;3.78;1.77;;;19.60;89.50;;;;;;4120389;28;20391;-53
2023/07/23 03:28:42;;;;;;;4.60;2.05;;;19.60;89.70;;;;;;4103533;28;20130;-53
2023/07/23 03:30:44;;;;;;;5.40;2.10;;;19.60;90.00;;;;;;4120683;28;20447;-50
2023/07/23 03:32:48;;;;;;;4.30;2.50;;;19.50;90.00;;;;;;4120129;28;20050;-50
2023/07/23 03:34:50;;;;;;;4.40;2.55;;;19.50;90.20;;;;;;4120749;28;20081;-50
2023/07/23 03:36:52;;;;;;;8.50;2.92;;;19.50;90.20;;;;;;4120788;28;20043;-50
2023/07/23 03:38:54;;;;;;;7.72;2.38;;;19.50;90.20;;;;;;4120669;28;20101;-51
2023/07/23 03:40:57;;;;;;;6.30;2.70;;;19.40;90.50;;;;;;4103047;29;20527;-52
2023/07/23 03:42:59;;;;;;;5.97;2.35;;;19.40;90.70;;;;;;4102659;29;20058;-53
2023/07/23 03:45:01;;;;;;;5.43;2.40;;;19.40;91.00;;;;;;4120456;28;20055;-53
2023/07/23 03:47:11;;;;;;;6.18;2.30;;;19.40;91.10;;;;;;4120629;28;20051;-54
2023/07/23 03:49:14;;;;;;;4.53;2.25;;;19.40;91.10;;;;;;4129828;28;20050;-54
2023/07/23 03:51:19;;;;;;;3.40;2.10;;;19.30;91.10;;;;;;4136792;28;20482;-53
2023/07/23 03:53:21;;;;;;;;;;;19.40;91.10;;;;;;4136749;28;20081;-51
2023/07/23 03:55:23;;;;;;;4.30;2.60;;;19.40;91.10;;;;;;4136335;28;20033;-49
2023/07/23 03:57:25;;;;;;;5.90;2.50;;;19.30;91.30;;;;;;4136747;28;20042;-49
2023/07/23 03:59:29;;;;;;;5.63;2.80;;;19.30;91.30;;;;;;4136469;28;20441;-49
2023/07/23 04:01:31;;;;;;;6.95;2.72;;;19.30;91.20;;;;;;4136464;28;20056;-49
2023/07/23 04:03:33;;;;;;;6.63;2.40;;;19.30;91.30;;;;;;4120421;28;20051;-52
2023/07/23 04:05:37;;;;;;;4.32;2.05;;;19.40;91.10;;;;;;4120341;28;20051;-52
2023/07/23 04:07:39;;;;;;;4.78;2.80;;;19.40;90.90;;;;;;4120664;28;20053;-52
2023/07/23 04:09:41;;;;;;;6.13;2.83;;;19.40;90.90;;;;;;4120202;28;20141;-51
2023/07/23 04:11:44;;;;;;;5.40;2.80;;;19.40;91.00;;;;;;4120576;28;20066;-51
2023/07/23 04:13:47;;;;;;;9.93;2.85;;;19.40;91.10;;;;;;4102439;29;20589;-51
2023/07/23 04:15:49;;;;;;;4.53;2.70;;;19.30;91.30;;;;;;4120344;28;20078;-53
2023/07/23 04:17:51;;;;;;;4.85;2.67;;;19.40;91.20;;;;;;4120630;28;20054;-56
2023/07/23 04:19:54;;;;;;;5.70;2.70;;;19.30;91.30;;;;;;4120304;28;20050;-51
2023/07/23 04:21:57;;;;;;;32.67;4.65;;;19.40;91.30;;;;;;4120431;28;20051;-49
2023/07/23 04:24:00;;;;;;;7.22;3.00;;;19.40;91.60;;;;;;4119431;28;20046;-48
2023/07/23 04:26:02;;;;;;;5.65;2.72;;;19.30;91.60;;;;;;4120600;28;20453;-49
2023/07/23 04:28:04;;;;;;;4.50;2.45;;;19.30;91.60;;;;;;4120451;28;20047;-49
2023/07/23 04:30:08;;;;;;;4.88;2.60;;;19.30;91.70;;;;;;4120306;28;20054;-49
2023/07/23 04:32:10;;;;;;;5.90;2.65;;;19.30;91.70;;;;;;4120282;28;20047;-48
2023/07/23 04:34:12;;;;;;;3.83;2.20;;;19.30;91.70;;;;;;4102411;29;20134;-49
2023/07/23 04:36:15;;;;;;;5.82;2.85;;;19.40;91.70;;;;;;4116727;28;20047;-49
2023/07/23 04:38:18;;;;;;;5.35;2.47;;;19.40;91.80;;;;;;4117772;28;20158;-52
2023/07/23 04:40:21;;;;;;;4.00;2.45;;;19.40;91.70;;;;;;4100406;28;20074;-49
2023/07/23 04:42:23;;;;;;;4.50;2.75;;;19.50;91.70;;;;;;4117741;28;20053;-50
2023/07/23 04:44:25;;;;;;;8.27;2.92;;;19.40;91.70;;;;;;4116882;28;20075;-49
2023/07/23 04:46:27;;;;;;;4.00;2.45;;;19.40;91.80;;;;;;4117665;28;20050;-51
2023/07/23 04:48:29;;;;;;;4.22;2.90;;;19.40;91.90;;;;;;4120886;28;20050;-52
2023/07/23 04:50:32;;;;;;;5.47;2.55;;;19.40;92.10;;;;;;4133793;28;20050;-51
2023/07/23 04:52:34;;;;;;;4.35;2.70;;;19.40;92.10;;;;;;4133478;28;20126;-52
2023/07/23 04:54:37;;;;;;;5.45;2.58;;;19.40;92.00;;;;;;4132869;28;20050;-50
2023/07/23 04:56:40;;;;;;;3.90;2.08;;;19.50;92.00;;;;;;4133620;28;20069;-50
2023/07/23 04:58:42;;;;;;;5.18;2.55;;;19.50;91.90;;;;;;4133511;28;20060;-51
2023/07/23 05:00:44;;;;;;;3.47;2.50;;;19.50;91.80;;;;;;4133384;28;20058;-49
2023/07/23 05:02:46;;;;;;;5.40;3.05;;;19.60;91.80;;;;;;4124302;28;20062;-50
2023/07/23 05:04:48;;;;;;;5.40;2.63;;;19.60;91.80;;;;;;4116692;28;20126;-50
2023/07/23 05:06:50;;;;;;;3.13;2.38;;;19.60;91.70;;;;;;4117255;28;20419;-50
2023/07/23 05:08:52;;;;;;;2.45;2.15;;;19.60;92.00;;;;;;4116943;28;20054;-49
2023/07/23 05:11:00;;;;;;;4.38;2.40;;;19.60;91.90;;;;;;4117304;28;20039;-49
2023/07/23 05:13:02;;;;;;;4.38;2.35;;;19.60;91.80;;;;;;4116708;28;20051;-52
2023/07/23 05:15:12;;;;;;;3.22;2.22;;;19.60;91.70;;;;;;4117019;28;20417;-52
2023/07/23 05:17:14;;;;;;;4.63;2.53;;;19.60;91.70;;;;;;4117244;28;20053;-49
2023/07/23 05:19:16;;;;;;;4.57;2.50;;;19.60;91.60;;;;;;4117105;28;20070;-50
2023/07/23 05:21:18;;;;;;;2.55;2.20;;;19.50;91.70;;;;;;4117151;28;20122;-50
2023/07/23 05:23:21;;;;;;;3.45;2.58;;;19.60;91.80;;;;;;4116181;28;20082;-50
2023/07/23 05:25:24;;;;;;;5.15;2.40;;;19.60;91.70;;;;;;4117020;28;20053;-51
2023/07/23 05:27:27;;;;;;;5.13;2.78;;;19.60;91.70;;;;;;4116949;28;20074;-50
2023/07/23 05:29:29;;;;;;;3.38;2.20;;;19.60;91.70;;;;;;4116921;28;20126;-49
2023/07/23 05:31:31;;;;;;;5.55;2.58;;;19.50;91.80;;;;;;4116838;28;20076;-50
2023/07/23 05:33:33;;;;;;;3.85;2.30;;;19.60;91.90;;;;;;4116318;28;20125;-49
2023/07/23 05:35:36;;;;;;;6.18;2.60;;;19.60;91.80;;;;;;4116832;28;20078;-49
2023/07/23 05:37:38;;;;;;;4.25;2.58;;;19.60;91.90;;;;;;4116593;28;20463;-50
2023/07/23 05:39:40;;;;;;;6.35;2.63;;;19.60;92.00;;;;;;4116801;28;20050;-53
2023/07/23 05:41:42;;;;;;;5.10;2.25;;;19.60;92.00;;;;;;4099592;29;20527;-52
2023/07/23 05:43:45;;;;;;;3.45;2.50;;;19.50;92.10;;;;;;4115822;28;20109;-52
2023/07/23 05:45:47;;;;;;;6.70;2.47;;;19.60;92.00;;;;;;4116741;28;20466;-50
2023/07/23 05:47:49;;;;;;;5.90;2.63;;;19.60;92.10;;;;;;4116323;28;20074;-50
2023/07/23 05:49:53;;;;;;;9.82;3.22;;;19.60;92.10;;;;;;4102224;28;20058;-50
2023/07/23 05:51:57;;;;;;;6.25;2.75;;;19.60;92.20;;;;;;4100299;29;20048;-51
2023/07/23 05:54:00;;;;;;;5.03;3.10;;;19.50;92.20;;;;;;4100062;29;20097;-50
2023/07/23 05:56:02;;;;;;;14.48;3.30;;;19.50;92.20;;;;;;4100615;29;20062;-50
2023/07/23 05:58:04;;;;;;;5.80;2.65;;;19.70;92.10;;;;;;4100461;29;20126;-51
2023/07/23 06:00:09;;;;;;;3.30;2.15;;;19.70;92.20;;;;;;4110357;28;20502;-52
2023/07/23 06:02:11;;;;;;;4.03;2.50;;;19.70;92.20;;;;;;4116168;28;20089;-53
2023/07/23 06:04:14;;;;;;;4.90;2.65;;;19.70;92.30;;;;;;4115685;28;20057;-50
2023/07/23 06:06:16;;;;;;;5.90;2.70;;;19.70;92.30;;;;;;4099150;29;20511;-51
2023/07/23 06:08:18;;;;;;;4.63;2.92;;;19.70;92.20;;;;;;4099251;29;20518;-51
2023/07/23 06:10:20;;;;;;;7.47;2.67;;;19.80;92.10;;;;;;4116394;28;20059;-50
2023/07/23 06:12:22;;;;;;;4.28;2.85;;;19.90;92.00;;;;;;4116450;28;20195;-50
2023/07/23 06:14:24;;;;;;;5.40;2.40;;;19.90;92.00;;;;;;4082342;29;20079;-51
2023/07/23 06:16:29;;;;;;;10.13;2.80;;;19.90;92.00;;;;;;4116279;28;20470;-53
2023/07/23 06:18:35;;;;;;;9.07;3.38;;;19.90;92.10;;;;;;4116520;28;20331;-53
2023/07/23 06:20:37;;;;;;;4.00;2.78;;;19.90;92.00;;;;;;4116143;28;20050;-53
2023/07/23 06:22:39;;;;;;;3.33;2.30;;;19.90;92.00;;;;;;4116157;28;20043;-51
2023/07/23 06:24:41;;;;;;;11.05;3.25;;;19.90;92.10;;;;;;4115516;28;20495;-53
2023/07/23 06:26:43;;;;;;;5.28;2.70;;;19.90;92.30;;;;;;4116403;28;20380;-53
2023/07/23 06:28:45;;;;;;;4.35;2.80;;;19.80;92.30;;;;;;4116159;28;20411;-53
2023/07/23 06:30:49;;;;;;;5.50;2.42;;;19.80;92.50;;;;;;4116219;28;20047;-54
2023/07/23 06:32:53;;;;;;;7.32;2.80;;;19.90;92.40;;;;;;4116106;28;20055;-52
2023/07/23 06:34:55;;;;;;;5.28;2.47;;;19.90;92.40;;;;;;4114996;28;20121;-50
2023/07/23 06:36:57;;;;;;;5.28;2.72;;;19.90;92.30;;;;;;4116029;28;20049;-50
2023/07/23 06:38:59;;;;;;;7.00;2.90;;;20.00;92.40;;;;;;4116102;28;20421;-52
2023/07/23 06:41:01;;;;;;;8.20;3.03;;;19.90;92.30;;;;;;4115830;28;20043;-53
2023/07/23 06:43:04;;;;;;;6.28;3.00;;;20.00;92.80;;;;;;4115985;28;20047;-52
2023/07/23 06:45:07;;;;;;;3.00;2.42;;;19.90;93.00;;;;;;4098271;29;20565;-52
2023/07/23 06:47:09;;;;;;;7.13;2.60;;;19.90;93.00;;;;;;4115797;28;20047;-52
2023/07/23 06:49:13;;;;;;;5.18;2.88;;;19.80;93.10;;;;;;4115568;28;20474;-52
2023/07/23 06:51:15;;;;;;;3.60;2.88;;;19.90;93.10;;;;;;4115992;28;20130;-53
2023/07/23 06:53:18;;;;;;;4.47;2.45;;;19.90;93.30;;;;;;4115269;28;20070;-53
2023/07/23 06:55:20;;;;;;;3.40;2.58;;;19.90;93.40;;;;;;4115630;28;20050;-52
2023/07/23 06:57:24;;;;;;;4.70;2.78;;;20.00;93.10;;;;;;4115605;28;20112;-52
2023/07/23 06:59:27;;;;;;;14.02;3.45;;;20.00;93.10;;;;;;4114827;28;20059;-53
2023/07/23 07:01:29;;;;;;;6.30;3.10;;;20.00;93.10;;;;;;4115630;28;20053;-52
2023/07/23 07:03:31;;;;;;;5.57;3.15;;;20.00;93.20;;;;;;4114407;28;20047;-52
2023/07/23 07:05:35;;;;;;;4.35;2.75;;;20.00;93.10;;;;;;4098374;29;20058;-52
2023/07/23 07:07:37;;;;;;;5.35;3.10;;;19.90;93.00;;;;;;4115785;28;20406;-53
2023/07/23 07:09:40;;;;;;;4.45;2.80;;;20.00;93.20;;;;;;4115440;28;20051;-52
2023/07/23 07:11:42;;;;;;;4.63;2.85;;;20.00;93.40;;;;;;4115753;28;20058;-52
2023/07/23 07:13:44;;;;;;;6.55;2.70;;;20.00;93.20;;;;;;4115078;28;20469;-50
2023/07/23 07:15:46;;;;;;;5.05;2.80;;;19.90;93.20;;;;;;4115494;28;20105;-51
2023/07/23 07:17:48;;;;;;;8.48;3.00;;;19.90;93.10;;;;;;4115200;28;20121;-49
2023/07/23 07:19:51;;;;;;;9.15;2.90;;;19.90;93.10;;;;;;4115425;28;20053;-52
2023/07/23 07:21:54;;;;;;;8.38;3.17;;;20.10;92.90;;;;;;4115619;28;20098;-51
2023/07/23 07:23:56;;;;;;;6.70;3.08;;;20.10;92.90;;;;;;4114714;28;20074;-50
2023/07/23 07:26:00;;;;;;;4.18;3.50;;;20.20;92.80;;;;;;4115472;28;20097;-53
2023/07/23 07:28:05;;;;;;;4.80;2.70;;;20.30;92.70;;;;;;4115383;28;20043;-52
2023/07/23 07:30:08;;;;;;;4.78;2.70;;;20.40;92.60;;;;;;4115416;28;20043;-52
2023/07/23 07:32:15;;;;;;;6.22;3.10;;;20.40;92.40;;;;;;4115233;28;20053;-52
2023/07/23 07:34:17;;;;;;;6.35;3.55;;;20.60;92.30;;;;;;4114350;28;20502;-53
2023/07/23 07:36:19;;;;;;;4.07;2.70;;;20.60;92.10;;;;;;4098464;29;20075;-52
2023/07/23 07:38:23;;;;;;;5.38;2.90;;;20.60;92.00;;;;;;4115525;28;20450;-52
2023/07/23 07:40:27;;;;;;;6.53;2.80;;;20.60;92.00;;;;;;4115536;28;20053;-52
2023/07/23 07:42:29;;;;;;;6.85;3.15;;;20.70;91.80;;;;;;4115245;28;20047;-52
2023/07/23 07:44:31;;;;;;;5.85;3.50;;;20.80;91.80;;;;;;4114507;28;20082;-50
2023/07/23 07:46:34;;;;;;;6.65;3.47;;;20.80;91.70;;;;;;4115360;28;20406;-53
2023/07/23 07:48:37;;;;;;;5.05;2.80;;;20.80;91.70;;;;;;4114702;28;20043;-53
2023/07/23 07:50:40;;;;;;;3.28;2.67;;;20.90;91.60;;;;;;4115143;28;20051;-52
2023/07/23 07:52:42;;;;;;;5.03;2.90;;;21.10;91.50;;;;;;4115127;28;20047;-53
2023/07/23 07:54:45;;;;;;;4.15;2.97;;;21.20;91.30;;;;;;4114397;28;20055;-52
2023/07/23 07:56:49;;;;;;;5.95;2.70;;;21.20;91.20;;;;;;4115166;28;20047;-52
2023/07/23 07:58:52;;;;;;;5.80;2.75;;;21.30;91.10;;;;;;4115119;28;20051;-50
2023/07/23 08:00:55;;;;;;;6.85;3.10;;;21.30;91.10;;;;;;4099414;29;20051;-50
2023/07/23 08:02:58;;;;;;;5.57;3.28;;;21.40;91.00;;;;;;4109070;28;20051;-50
2023/07/23 08:05:00;;;;;;;9.38;3.92;;;21.30;91.00;;;;;;4114853;28;20057;-50
2023/07/23 08:07:04;;;;;;;4.55;2.55;;;21.40;91.10;;;;;;4115476;28;20050;-49
2023/07/23 08:09:09;;;;;;;4.93;2.85;;;21.40;91.00;;;;;;4098140;29;20134;-50
2023/07/23 08:11:12;;;;;;;;;;;21.50;91.00;;;;;;4118512;28;20491;-50
2023/07/23 08:13:15;;;;;;;6.13;2.95;;;21.40;90.90;;;;;;4116834;28;19948;-50
2023/07/23 08:15:17;;;;;;;6.13;2.92;;;21.30;91.00;;;;;;4117596;28;20043;-52
2023/07/23 08:17:20;;;;;;;6.88;2.80;;;21.40;91.30;;;;;;4100478;29;20047;-51
2023/07/23 08:19:23;;;;;;;5.60;3.33;;;21.40;91.00;;;;;;4118172;28;20078;-50
2023/07/23 08:21:25;;;;;;;5.03;3.00;;;21.40;91.10;;;;;;4117817;28;20051;-50
2023/07/23 08:23:28;;;;;;;10.02;3.15;;;21.40;91.10;;;;;;4117945;28;20130;-49
2023/07/23 08:25:31;;;;;;;8.02;2.92;;;21.40;91.10;;;;;;4099917;29;20074;-50
2023/07/23 08:27:35;;;;;;;5.55;2.80;;;21.40;91.00;;;;;;4118123;28;20066;-51
2023/07/23 08:29:39;;;;;;;3.50;2.77;;;21.50;91.00;;;;;;4118086;28;20134;-49
2023/07/23 08:31:42;;;;;;;6.15;2.85;;;21.60;91.00;;;;;;4117518;28;20459;-53
2023/07/23 08:33:46;;;;;;;4.93;2.83;;;21.60;90.90;;;;;;4117345;28;20068;-52
2023/07/23 08:35:49;;;;;;;4.30;2.85;;;21.70;90.90;;;;;;4117862;28;20126;-50
2023/07/23 08:37:51;;;;;;;4.47;3.17;;;21.70;90.80;;;;;;4117902;28;20069;-49
2023/07/23 08:39:54;;;;;;;3.83;2.83;;;21.80;90.70;;;;;;4100839;28;20178;-50
2023/07/23 08:42:20;;;;;;;9.68;3.53;;;21.80;90.70;;;;;;4118222;28;20473;-50
2023/07/23 08:44:40;;;;;;;;;;;21.80;90.70;;;;;;4117862;28;20485;-50
2023/07/23 08:46:46;;;;;;;9.57;2.75;;;21.80;90.90;;;;;;4118328;28;19961;-49
2023/07/23 08:49:08;;;;;;;6.68;3.20;;;21.70;90.90;;;;;;4117896;28;20051;-50
2023/07/23 08:51:11;;;;;;;4.90;2.25;;;21.80;90.80;;;;;;4117984;28;20130;-48
2023/07/23 08:53:14;;;;;;;4.22;2.58;;;21.80;90.80;;;;;;4117478;28;20057;-50
2023/07/23 08:55:17;;;;;;;6.00;3.28;;;21.90;90.80;;;;;;4117046;28;20085;-51
2023/07/23 08:57:19;;;;;;;5.85;2.63;;;21.90;90.70;;;;;;4117515;28;20113;-51
2023/07/23 08:59:23;;;;;;;7.35;2.92;;;21.90;90.70;;;;;;4125180;28;20060;-51
2023/07/23 09:01:25;;;;;;;5.47;2.90;;;22.00;90.70;;;;;;4149634;28;20054;-50
2023/07/23 09:03:32;;;;;;;9.27;3.20;;;22.00;90.90;;;;;;4134741;28;20051;-50
2023/07/23 09:05:38;;;;;;;9.25;2.90;;;22.00;90.80;;;;;;4132921;28;20057;-50
2023/07/23 09:07:40;;;;;;;6.35;2.58;;;22.00;90.90;;;;;;4133610;28;20051;-50
2023/07/23 09:09:42;;;;;;;7.97;2.65;;;21.90;90.90;;;;;;4133547;28;20545;-50
2023/07/23 09:11:44;;;;;;;6.80;2.40;;;22.00;90.90;;;;;;4133565;28;20078;-50
2023/07/23 09:13:49;;;;;;;6.30;2.47;;;22.00;90.80;;;;;;4133030;28;20076;-50
2023/07/23 09:15:54;;;;;;;5.53;2.97;;;22.00;90.90;;;;;;4132827;28;20410;-50
2023/07/23 09:17:57;;;;;;;5.07;2.70;;;22.10;90.90;;;;;;4133344;28;20132;-51
2023/07/23 09:20:01;;;;;;;3.92;2.80;;;22.20;90.80;;;;;;4115807;28;20419;-51
2023/07/23 09:22:05;;;;;;;8.05;3.33;;;22.30;90.70;;;;;;4132342;28;20064;-51
2023/07/23 09:24:11;;;;;;;5.05;2.95;;;22.30;90.70;;;;;;4132683;28;20137;-50
2023/07/23 09:26:13;;;;;;;5.82;2.55;;;22.30;90.60;;;;;;4115807;28;20065;-51
2023/07/23 09:28:20;;;;;;;5.53;3.05;;;22.30;90.60;;;;;;4133038;28;20101;-50
2023/07/23 09:30:23;;;;;;;6.03;2.97;;;22.40;90.60;;;;;;4133331;28;20162;-53
2023/07/23 09:32:26;;;;;;;3.88;2.55;;;22.50;90.70;;;;;;4133068;28;20058;-53
2023/07/23 09:34:28;;;;;;;8.40;2.90;;;22.50;90.60;;;;;;4132358;28;20069;-53
2023/07/23 09:36:32;;;;;;;4.03;2.38;;;22.60;90.50;;;;;;4115549;28;20057;-51
2023/07/23 09:38:34;;;;;;;4.80;2.63;;;22.70;90.30;;;;;;4132957;28;20050;-53
2023/07/23 09:40:38;;;;;;;7.93;2.80;;;22.70;90.20;;;;;;4132850;28;20402;-52
2023/07/23 09:42:42;;;;;;;6.10;2.92;;;22.70;90.20;;;;;;4132881;28;20043;-52
2023/07/23 09:44:44;;;;;;;;;;;22.80;90.20;;;;;;4132379;28;20050;-53
2023/07/23 09:46:46;;;;;;;4.88;2.65;;;22.70;90.20;;;;;;4132991;28;19926;-53
2023/07/23 09:48:51;;;;;;;4.63;2.90;;;22.50;90.50;;;;;;4138593;28;20136;-51
2023/07/23 09:50:57;;;;;;;8.02;2.83;;;22.60;90.50;;;;;;4149436;28;20046;-53
2023/07/23 09:53:01;;;;;;;7.20;3.00;;;22.50;90.50;;;;;;4149209;28;20069;-53
2023/07/23 09:55:04;;;;;;;8.75;2.55;;;22.40;90.50;;;;;;4148231;28;20049;-50
2023/07/23 09:57:07;;;;;;;7.43;2.63;;;22.40;90.60;;;;;;4131438;28;20489;-51
2023/07/23 09:59:11;;;;;;;8.75;3.00;;;22.40;90.60;;;;;;4148167;28;20128;-50
2023/07/23 10:01:14;;;;;;;6.25;3.15;;;22.40;90.90;;;;;;4148984;28;20046;-53
2023/07/23 10:03:18;;;;;;;7.47;3.78;;;22.30;91.10;;;;;;4135622;28;20054;-53
2023/07/23 10:05:20;;;;;;;11.27;4.10;;;22.30;91.40;;;;;;4131750;28;20042;-53
2023/07/23 10:07:23;;;;;;;6.88;4.40;;;22.30;92.30;;;;;;4132605;28;20057;-50
2023/07/23 10:09:28;;;;;;;9.55;4.20;;;22.20;92.60;;;;;;4132002;28;20056;-51
2023/07/23 10:11:31;;;;;;;9.05;3.20;;;22.10;93.10;;;;;;4132362;28;20046;-50
2023/07/23 10:13:33;;;;;;;3.58;2.80;;;22.00;92.80;;;;;;4131977;28;20046;-51
2023/07/23 10:15:37;;;;;;;5.25;2.80;;;22.00;92.70;;;;;;4131772;28;20109;-50
2023/07/23 10:17:42;;;;;;;4.32;2.72;;;22.00;92.70;;;;;;4132588;28;20048;-51
2023/07/23 10:19:45;;;;;;;;;;;22.10;92.70;;;;;;4132912;28;20081;-50
2023/07/23 10:21:49;;;;;;;6.30;3.15;;;22.10;92.60;;;;;;4132464;28;20019;-50
2023/07/23 10:23:54;;;;;;;3.90;2.85;;;22.00;92.70;;;;;;4132205;28;20054;-51
2023/07/23 10:26:22;;;;;;;9.35;3.15;;;22.20;92.90;;;;;;4131531;28;20109;-51
2023/07/23 10:28:24;;;;;;;9.10;3.00;;;22.30;93.00;;;;;;4132428;28;20070;-50
2023/07/23 10:30:27;;;;;;;4.72;3.17;;;22.30;93.20;;;;;;4132385;28;20046;-50
2023/07/23 10:32:31;;;;;;;7.22;2.72;;;22.20;93.40;;;;;;4132218;28;20510;-52
2023/07/23 10:34:40;;;;;;;5.28;2.78;;;22.20;93.50;;;;;;4131025;28;20042;-52
2023/07/23 10:37:14;;;;;;;3.97;2.67;;;22.20;93.80;;;;;;4133028;28;20046;-52
2023/07/23 10:39:18;;;;;;;5.25;3.10;;;22.20;93.90;;;;;;4132483;28;20406;-51
2023/07/23 10:41:53;;;;;;;5.55;3.20;;;22.20;94.00;;;;;;4132076;28;20354;-52